Erzurum International Airport

LTCE · 埃尔祖鲁姆省, 土耳其

罗盘
风向 的 风向 230° Erzurum International Airport 8R/26L
风: 4 kt, 2 beaufort

3 kt

2 kt
改变
0 ft 1.000 2.000 3.000 4.000 5.000
CAVOK
METAR LTCE 231720Z 23004KT CAVOK M03/M05 Q1023 NOSIG RMK RWY08R 27003KT 210V290 RWY26R 23004KT RWY08L 29003KT SKC

METAR Erzurum International Airport - LTCE/ERZ

Erzurum International Airport是,土耳其中的中型机场。 该机场位于纬度39,95650和经度41,17020。 该机场有2条跑道: 8R/26L 和 8L/26R. 本场的ICAO机场代码为LTCE。 该机场的IATA代码为ERZ。 机场在Ankara FIR中。

该航空气象观测是针对Erzurum International Airport在2024年2月23日 20:20, 当地时间进行的。

机场观察

风向为230°,速度为4 kt。

天气为CAVOK。这意味着在5.000 ft或MSA(最低安全高度)以下(以较高者为准)以下没有云。这也意味着没有观测到积雨云或高耸的积云,可见度为10 km 或者更多或更高。此外,不会有雾,降雨或其他重要天气。

温度为-3 °C,阵风为-8 °C。 露点为-5 °C,相对湿度为86%。 海平面上的气压为1023 hPa (QNH)。

白天

今天,太阳从06:57升起,在17:59降落。 这适用于Erzurum International Airport,世界夏令时可能有所不同。 当地时间与世界标准时间之间的时差为+3 小时。 当前,没有夏令时有效。

公司介绍

我们没有关于这个机场的公司信息。

体会

到Vliegles.nl去找飞行课程,跳伞和其他飞行体验。 浏览页面,了解Erzurum International Airport附近所有可用的活动。 你也可以使用搜索功能来寻找你所在地附近的特定飞行课程、跳伞或其他飞行体验。

跑道

Id 标题 侧风 逆风 侧风 %
8R/26L 088°-268° 2 kt 3 kt 62 %
8L/26R 088°-268° 2 kt 3 kt 62 %

逆风成分最大的方向会被突出显示,并用于横风计算。 这并不一定意味着这个方向在使用。

温度 & 天气

温度 -3 °C
露点 -5 °C
相对湿度 86%
风寒 -8 °C
Kp-index 0 (0-9)

评论

RWY08R 27003KT 210V290 RWY26R 23004KT RWY08L 29003KT SKC

白天

日出
06:57 (10:20)
中午
12:28
日落
17:59

小工具

你想在你的网站上有一个关于Erzurum International Airport的当前航空天气(METAR)的小部件吗?

显示HTML代码
?>